Time;durP1;ratioP1;P1;durP2;ratioP2;P2;SDS_P1;SDS_P2;PMS_P1;PMS_P2;Temp;Humidity;BMP_temperature;BMP_pressure;BME280_temperature;BME280_humidity;BME280_pressure;Samples;Min_cycle;Max_cycle;Signal;HPM_P1;HPM_P2
2020/12/22 00:04:19;;;;;;;1999.90;999.90;;;;;;;7.84;70.52;100890.75;15708148;28;20047;-62
2020/12/22 00:11:51;;;;;;;1999.90;999.90;;;;;;;7.76;70.84;100880.38;15722598;28;20049;-63
2020/12/22 00:19:25;;;;;;;1999.90;999.90;;;;;;;7.80;70.89;100873.03;15714050;28;20404;-63
2020/12/22 00:26:57;;;;;;;1999.90;999.90;;;;;;;7.95;70.45;100855.22;15663575;28;20073;-63
2020/12/22 00:34:31;;;;;;;1999.90;999.90;;;;;;;7.87;70.49;100842.06;15672750;28;20041;-62
2020/12/22 00:42:04;;;;;;;1999.90;999.90;;;;;;;7.79;70.78;100818.63;15680964;28;20144;-63
2020/12/22 00:49:38;;;;;;;1999.90;999.90;;;;;;;7.97;70.19;100809.31;15681259;28;20072;-63
2020/12/22 00:57:11;;;;;;;1999.90;999.90;;;;;;;8.06;70.13;100801.88;15680885;28;20435;-63
2020/12/22 01:04:59;;;;;;;1999.90;999.90;;;;;;;8.00;70.15;100774.50;15685624;28;20036;-63
2020/12/22 01:12:31;;;;;;;1999.90;999.90;;;;;;;7.99;70.29;100762.59;15681619;28;20045;-62
2020/12/22 01:20:06;;;;;;;1999.90;999.90;;;;;;;8.16;69.96;100756.34;15701880;28;20167;-63
2020/12/22 01:27:38;;;;;;;1999.90;999.90;;;;;;;8.41;69.15;100729.06;15717508;28;20068;-62
2020/12/22 01:35:12;;;;;;;1999.90;999.90;;;;;;;8.57;68.59;100728.34;15695212;28;20056;-63
2020/12/22 01:42:46;;;;;;;1999.90;999.90;;;;;;;8.39;69.51;100719.06;15677423;28;20096;-63
2020/12/22 01:50:20;;;;;;;1999.90;999.90;;;;;;;8.44;69.77;100707.00;15694746;28;20047;-63
2020/12/22 01:57:52;;;;;;;1999.90;999.90;;;;;;;8.59;69.63;100684.34;15717574;28;20045;-63
2020/12/22 02:05:26;;;;;;;1999.90;999.90;;;;;;;8.22;73.46;100681.97;15645521;28;20056;-63
2020/12/22 02:12:59;;;;;;;1999.90;999.90;;;;;;;7.91;75.39;100660.53;15710145;28;20514;-63
2020/12/22 02:20:32;;;;;;;1999.90;999.90;;;;;;;7.94;76.33;100659.09;15692439;28;20055;-64
2020/12/22 02:28:06;;;;;;;1999.90;999.90;;;;;;;7.93;77.65;100649.13;15669223;28;20060;-65
2020/12/22 02:35:39;;;;;;;1999.90;999.90;;;;;;;7.86;78.24;100629.28;15693536;28;20524;-65
2020/12/22 02:43:13;;;;;;;1999.90;999.90;;;;;;;7.82;79.42;100609.66;15705378;28;20075;-64
2020/12/22 02:50:46;;;;;;;1999.90;999.90;;;;;;;7.97;79.63;100594.53;15704529;28;20036;-66
2020/12/22 02:58:20;;;;;;;1999.90;999.90;;;;;;;7.96;80.44;100567.91;15721953;28;20077;-65
2020/12/22 03:05:52;;;;;;;1999.90;999.90;;;;;;;8.18;80.12;100570.63;15725103;28;20053;-65
2020/12/22 03:13:26;;;;;;;1999.90;999.90;;;;;;;8.01;81.29;100554.66;15706137;28;20123;-65
2020/12/22 03:20:58;;;;;;;1999.90;999.90;;;;;;;8.14;81.23;100552.13;15706662;28;20081;-62
2020/12/22 03:28:32;;;;;;;1999.90;999.90;;;;;;;7.96;82.79;100524.25;15723670;28;20058;-65
2020/12/22 03:36:04;;;;;;;1999.90;999.90;;;;;;;8.19;82.66;100510.28;15684964;28;20128;-65
2020/12/22 03:43:38;;;;;;;1999.90;999.90;;;;;;;8.31;82.44;100499.34;15704527;28;20120;-64
2020/12/22 03:51:11;;;;;;;1999.90;999.90;;;;;;;8.27;83.46;100493.63;15722283;28;20124;-65
2020/12/22 03:58:44;;;;;;;1999.90;999.90;;;;;;;8.48;83.18;100468.03;15720703;28;20135;-65
2020/12/22 04:06:17;;;;;;;1999.90;999.90;;;;;;;8.42;83.76;100438.72;15700695;28;20032;-65
2020/12/22 04:13:52;;;;;;;1999.90;999.90;;;;;;;8.49;84.28;100442.69;15681976;28;20086;-66
2020/12/22 04:21:25;;;;;;;1999.90;999.90;;;;;;;8.70;83.74;100420.59;15706880;28;20128;-66
2020/12/22 04:28:59;;;;;;;1999.90;999.90;;;;;;;8.73;83.75;100413.56;15720953;28;20041;-66
2020/12/22 04:36:32;;;;;;;1999.90;999.90;;;;;;;8.60;84.49;100402.28;15720371;28;20045;-66
2020/12/22 04:44:05;;;;;;;1999.90;999.90;;;;;;;8.64;84.70;100388.53;15691262;28;20048;-66
2020/12/22 04:51:38;;;;;;;1999.90;999.90;;;;;;;8.83;84.34;100379.84;15696795;28;20036;-66
2020/12/22 04:59:13;;;;;;;1999.90;999.90;;;;;;;8.92;84.35;100353.63;15713418;28;20048;-66
2020/12/22 05:06:46;;;;;;;1999.90;999.90;;;;;;;8.95;84.12;100361.31;15694070;28;20037;-65
2020/12/22 05:14:20;;;;;;;1999.90;999.90;;;;;;;8.98;84.60;100357.06;15689862;28;20056;-66
2020/12/22 05:21:55;;;;;;;1999.90;999.90;;;;;;;9.26;84.16;100351.91;15708251;28;20041;-68
2020/12/22 05:29:29;;;;;;;1999.90;999.90;;;;;;;9.16;84.77;100332.78;15714259;28;20051;-68
2020/12/22 05:37:07;;;;;;;;;;;;;;;9.44;84.37;100331.19;15711162;28;20065;-68
2020/12/22 05:44:48;;;;;;;1999.90;999.90;;;;;;;9.38;85.53;100317.78;15703314;28;19947;-68
2020/12/22 05:52:22;;;;;;;1999.90;999.90;;;;;;;9.57;84.85;100301.47;15693854;28;20178;-68
2020/12/22 05:59:57;;;;;;;1999.90;999.90;;;;;;;9.67;85.22;100303.88;15705715;28;20072;-69
2020/12/22 06:07:36;;;;;;;1999.90;999.90;;;;;;;9.49;86.23;100292.03;15699732;28;20041;-69
2020/12/22 06:15:11;;;;;;;1999.90;999.90;;;;;;;9.89;85.32;100299.13;15694009;28;20044;-69
2020/12/22 06:22:44;;;;;;;1999.90;999.90;;;;;;;9.88;85.77;100295.53;15688203;28;20294;-69
2020/12/22 06:30:18;;;;;;;1999.90;999.90;;;;;;;10.03;86.08;100291.34;15656841;28;20132;-69
2020/12/22 06:37:50;;;;;;;1999.90;999.90;;;;;;;10.22;86.73;100276.97;15651195;28;20055;-69
2020/12/22 06:45:29;;;;;;;1999.90;999.90;;;;;;;10.40;86.30;100278.41;15684360;28;20453;-70
2020/12/22 06:53:02;;;;;;;1999.90;999.90;;;;;;;10.45;85.95;100282.97;15705386;28;20044;-68
2020/12/22 07:00:39;;;;;;;1999.90;999.90;;;;;;;10.62;85.60;100274.41;15637294;28;20069;-69
2020/12/22 07:08:13;;;;;;;1999.90;999.90;;;;;;;10.66;85.54;100256.66;15654241;28;20482;-68
2020/12/22 07:15:48;;;;;;;1999.90;999.90;;;;;;;10.69;85.55;100249.56;15671564;28;20041;-68
2020/12/22 07:23:20;;;;;;;1999.90;999.90;;;;;;;10.93;84.77;100257.16;15675746;28;20118;-68
2020/12/22 07:30:54;;;;;;;1999.90;999.90;;;;;;;10.98;84.99;100252.19;15681596;28;20143;-68
2020/12/22 07:38:28;;;;;;;1999.90;999.90;;;;;;;11.03;84.00;100253.94;15663822;28;20041;-68
2020/12/22 07:46:02;;;;;;;1999.90;999.90;;;;;;;11.19;83.77;100256.88;15663640;28;20513;-68
2020/12/22 07:53:34;;;;;;;1999.90;999.90;;;;;;;11.28;84.00;100240.81;15682084;28;20483;-68
2020/12/22 08:01:10;;;;;;;1999.90;999.90;;;;;;;11.34;84.01;100246.97;15680378;28;20115;-68
2020/12/22 08:08:42;;;;;;;1999.90;999.90;;;;;;;11.51;83.15;100246.72;15662580;28;20039;-68
2020/12/22 08:16:16;;;;;;;1999.90;999.90;;;;;;;11.51;83.94;100257.91;15679860;28;20052;-68
2020/12/22 08:23:49;;;;;;;1999.90;999.90;;;;;;;11.66;83.11;100257.19;15661185;28;20086;-67
2020/12/22 08:31:27;;;;;;;1999.90;999.90;;;;;;;11.95;82.53;100272.06;15644590;28;20037;-67
2020/12/22 08:39:18;;;;;;;1999.90;999.90;;;;;;;12.21;81.96;100275.28;15679234;28;20041;-67
2020/12/22 08:46:52;;;;;;;1999.90;999.90;;;;;;;12.14;81.82;100273.06;15660083;28;20041;-67
2020/12/22 08:54:26;;;;;;;1999.90;999.90;;;;;;;12.41;81.24;100285.47;15642406;28;20091;-66
2020/12/22 09:01:59;;;;;;;1999.90;999.90;;;;;;;12.29;81.39;100291.09;15676283;28;20037;-66
2020/12/22 09:09:32;;;;;;;1999.90;999.90;;;;;;;12.43;81.57;100297.09;15676878;28;20041;-66
2020/12/22 09:17:06;;;;;;;1999.90;999.90;;;;;;;12.73;80.58;100302.34;15676110;28;20036;-65
2020/12/22 09:24:41;;;;;;;1999.90;999.90;;;;;;;12.75;81.11;100313.19;15676506;28;20151;-65
2020/12/22 09:32:15;;;;;;;1999.90;999.90;;;;;;;13.04;80.22;100311.97;15658590;28;20045;-65
2020/12/22 09:39:49;;;;;;;1999.90;999.90;;;;;;;13.13;80.20;100321.84;15675654;28;20045;-66
2020/12/22 09:47:23;;;;;;;1999.90;999.90;;;;;;;13.29;80.40;100322.69;15656581;28;20049;-66
2020/12/22 09:54:55;;;;;;;1999.90;999.90;;;;;;;13.21;80.62;100320.06;15674817;28;20045;-65
2020/12/22 10:02:29;;;;;;;1999.90;999.90;;;;;;;13.46;80.43;100329.94;15674901;28;20083;-65
2020/12/22 10:10:02;;;;;;;1999.90;999.90;;;;;;;13.37;80.80;100331.28;15674260;28;20363;-65
2020/12/22 10:17:36;;;;;;;1999.90;999.90;;;;;;;13.58;80.31;100327.03;15639844;28;20045;-66
2020/12/22 10:25:09;;;;;;;1999.90;999.90;;;;;;;13.48;82.32;100341.59;15673656;28;20138;-65
2020/12/22 10:32:43;;;;;;;1999.90;999.90;;;;;;;13.38;83.56;100344.13;15655770;28;20410;-65
2020/12/22 10:40:16;;;;;;;1999.90;999.90;;;;;;;13.58;83.29;100337.44;15655424;28;20096;-65
2020/12/22 10:47:49;;;;;;;1999.90;999.90;;;;;;;13.73;82.63;100335.78;15674077;28;20040;-65
2020/12/22 10:55:23;;;;;;;1999.90;999.90;;;;;;;13.96;81.77;100342.34;15672496;28;20056;-65
2020/12/22 11:03:00;;;;;;;1999.90;999.90;;;;;;;13.89;81.58;100341.38;15684062;28;20041;-65
2020/12/22 11:10:33;;;;;;;1999.90;999.90;;;;;;;14.10;80.95;100359.53;15684105;28;20144;-65
2020/12/22 11:18:07;;;;;;;1999.90;999.90;;;;;;;14.24;80.37;100367.44;15683037;28;20449;-65
2020/12/22 11:25:40;;;;;;;1999.90;999.90;;;;;;;14.09;80.79;100371.13;15664837;28;20052;-65
2020/12/22 11:33:14;;;;;;;1999.90;999.90;;;;;;;14.37;80.31;100380.16;15665268;28;20274;-65
2020/12/22 11:40:46;;;;;;;;;;;;;;;14.40;80.44;100395.47;15665278;28;20052;-65
2020/12/22 11:48:24;;;;;;;1999.90;999.90;;;;;;;14.47;79.60;100398.47;15647032;28;19961;-65
2020/12/22 11:55:57;;;;;;;1999.90;999.90;;;;;;;14.64;78.93;100405.66;15681008;28;20536;-65
2020/12/22 12:03:31;;;;;;;;;;;;;;;15.00;77.62;100410.00;15663804;28;20045;-65
2020/12/22 12:11:04;;;;;;;1999.90;999.90;;;;;;;15.34;76.37;100399.88;15662484;28;20365;-64
2020/12/22 12:18:37;;;;;;;1999.90;999.90;;;;;;;17.58;68.35;100424.88;15662032;28;20040;-64
2020/12/22 12:26:11;;;;;;;1999.90;999.90;;;;;;;16.44;72.46;100429.06;15679591;28;20053;-62
2020/12/22 12:33:44;;;;;;;1999.90;999.90;;;;;;;16.87;70.05;100422.03;15660832;28;20056;-64
2020/12/22 12:41:18;;;;;;;1999.90;999.90;;;;;;;16.64;68.84;100418.47;15661321;28;20391;-64
2020/12/22 12:48:54;;;;;;;1999.90;999.90;;;;;;;15.99;72.18;100413.06;15644492;28;20053;-63
2020/12/22 12:56:27;;;;;;;1999.90;999.90;;;;;;;15.79;72.72;100426.41;15659722;28;20071;-64
2020/12/22 13:04:00;;;;;;;1999.90;999.90;;;;;;;15.86;72.74;100435.78;15677136;28;20476;-63
2020/12/22 13:11:34;;;;;;;1999.90;999.90;;;;;;;15.24;75.51;100437.00;15642336;28;20071;-64
2020/12/22 13:19:08;;;;;;;1999.90;999.90;;;;;;;15.03;76.03;100431.78;15675269;28;20041;-64
2020/12/22 13:26:42;;;;;;;1999.90;999.90;;;;;;;15.20;75.67;100450.97;15674993;28;20056;-63
2020/12/22 13:34:15;;;;;;;1999.90;999.90;;;;;;;15.84;73.38;100443.00;15656275;28;20041;-63
2020/12/22 13:41:48;;;;;;;;;;;;;;;15.67;73.82;100441.47;15674577;28;20071;-64
2020/12/22 13:49:22;;;;;;;1999.90;999.90;;;;;;;15.27;74.94;100451.13;15674111;28;19977;-64
2020/12/22 13:56:54;;;;;;;;;;;;;;;15.52;73.81;100459.22;15678237;28;20098;-63
2020/12/22 14:04:28;;;;;;;1999.90;999.90;;;;;;;15.49;73.60;100457.97;15706550;28;19921;-64
2020/12/22 14:12:02;;;;;;;;;;;;;;;15.66;72.85;100467.16;15655241;28;20040;-62
2020/12/22 14:19:36;;;;;;;1999.90;999.90;;;;;;;15.38;73.27;100476.63;15687669;28;19987;-63
2020/12/22 14:27:09;;;;;;;1999.90;999.90;;;;;;;15.28;73.15;100477.22;15708280;28;20101;-63
2020/12/22 14:34:43;;;;;;;1999.90;999.90;;;;;;;15.51;72.70;100496.97;15734653;28;20386;-64
2020/12/22 14:42:15;;;;;;;;;;;;;;;15.60;72.49;100506.00;15740764;28;20072;-63
2020/12/22 14:49:49;;;;;;;1999.90;999.90;;;;;;;15.20;73.22;100526.03;15700966;28;19935;-63
2020/12/22 14:57:21;;;;;;;;;;;;;;;15.19;73.14;100549.72;15707270;28;20123;-63
2020/12/22 15:04:56;;;;;;;1999.90;999.90;;;;;;;14.86;73.31;100570.66;15681535;28;20023;-62
2020/12/22 15:12:30;;;;;;;1999.90;999.90;;;;;;;14.66;74.59;100595.06;15666012;28;20052;-63
2020/12/22 15:20:04;;;;;;;1999.90;999.90;;;;;;;14.66;75.36;100597.88;15739166;22;20050;-64
2020/12/22 15:27:37;;;;;;;1999.90;999.90;;;;;;;14.41;76.14;100610.44;15776412;28;20051;-63
2020/12/22 15:35:11;;;;;;;1999.90;999.90;;;;;;;14.27;76.41;100636.13;15818014;28;20044;-64
2020/12/22 15:42:45;;;;;;;1999.90;999.90;;;;;;;14.32;75.59;100641.47;15737401;28;20084;-62
2020/12/22 15:50:19;;;;;;;1999.90;999.90;;;;;;;14.08;76.05;100673.31;15795253;28;20048;-63
2020/12/22 15:57:54;;;;;;;;;;;;;;;14.25;75.81;100685.38;15779074;28;20493;-63
2020/12/22 16:05:27;;;;;;;1999.90;999.90;;;;;;;14.00;76.54;100687.50;15785301;28;19943;-63
2020/12/22 16:13:02;;;;;;;1999.90;999.90;;;;;;;13.89;76.91;100694.78;15747296;28;20051;-63
2020/12/22 16:20:36;;;;;;;1999.90;999.90;;;;;;;14.01;76.64;100698.34;15732419;28;20040;-63
2020/12/22 16:28:08;;;;;;;1999.90;999.90;;;;;;;13.99;76.55;100705.50;15732586;28;20048;-62
2020/12/22 16:35:43;;;;;;;;;;;;;;;13.57;78.53;100706.66;15732694;28;20076;-62
2020/12/22 16:43:17;;;;;;;1999.90;999.90;;;;;;;13.62;77.99;100722.41;15731956;28;19924;-63
2020/12/22 16:50:51;;;;;;;1999.90;999.90;;;;;;;13.92;77.45;100738.94;15732661;28;20048;-64
2020/12/22 16:58:24;;;;;;;1999.90;999.90;;;;;;;13.86;77.51;100758.03;15747875;28;20123;-63
2020/12/22 17:05:57;;;;;;;1999.90;999.90;;;;;;;14.07;76.79;100774.69;15746960;28;20311;-62
2020/12/22 17:13:30;;;;;;;1999.90;999.90;;;;;;;13.88;75.56;100782.91;15746035;28;20040;-62
2020/12/22 17:21:03;;;;;;;1999.90;999.90;;;;;;;13.89;74.36;100799.38;15740016;28;20051;-62
2020/12/22 17:28:36;;;;;;;1999.90;999.90;;;;;;;13.22;74.32;100815.63;15786166;28;20094;-62
2020/12/22 17:36:16;;;;;;;1999.90;999.90;;;;;;;13.18;72.42;100825.06;15728843;28;20053;-62
2020/12/22 17:43:48;;;;;;;1999.90;999.90;;;;;;;12.80;71.46;100847.69;15766222;28;20117;-62
2020/12/22 17:51:25;;;;;;;1999.90;999.90;;;;;;;12.54;71.89;100871.19;15788413;28;20044;-62
2020/12/22 17:58:57;;;;;;;1999.90;999.90;;;;;;;12.28;72.26;100870.56;15765783;28;20079;-62
2020/12/22 18:06:31;;;;;;;1999.90;999.90;;;;;;;12.36;71.90;100859.28;15762745;28;20036;-62
2020/12/22 18:14:06;;;;;;;1999.90;999.90;;;;;;;12.56;71.07;100885.66;15757754;28;20048;-62
2020/12/22 18:21:39;;;;;;;1999.90;999.90;;;;;;;12.54;71.71;100889.94;15753161;28;20048;-62
2020/12/22 18:29:12;;;;;;;;;;;;;;;12.50;71.58;100900.19;15732818;28;20047;-63
2020/12/22 18:36:47;;;;;;;1999.90;999.90;;;;;;;12.37;71.81;100910.47;15776235;28;19959;-63
2020/12/22 18:44:20;;;;;;;1999.90;999.90;;;;;;;12.33;71.97;100901.97;15752920;28;20048;-63
2020/12/22 18:51:54;;;;;;;1999.90;999.90;;;;;;;12.28;72.58;100909.72;15733082;28;20124;-61
2020/12/22 18:59:27;;;;;;;1999.90;999.90;;;;;;;12.20;72.75;100916.22;15747540;28;20135;-61
2020/12/22 19:07:00;;;;;;;1999.90;999.90;;;;;;;11.99;73.12;100925.41;15742284;28;20048;-62
2020/12/22 19:14:33;;;;;;;1999.90;999.90;;;;;;;11.88;73.86;100948.47;15741645;28;20078;-64
2020/12/22 19:22:07;;;;;;;1999.90;999.90;;;;;;;11.92;73.47;100949.44;15794926;28;20374;-62
2020/12/22 19:29:40;;;;;;;1999.90;999.90;;;;;;;12.00;73.27;100960.59;15764251;28;20056;-63
2020/12/22 19:37:14;;;;;;;1999.90;999.90;;;;;;;12.12;72.70;100966.28;15815357;28;20507;-62
2020/12/22 19:44:46;;;;;;;1999.90;999.90;;;;;;;12.17;72.15;100967.22;15790617;28;20047;-62
2020/12/22 19:52:21;;;;;;;1999.90;999.90;;;;;;;12.02;72.04;100968.63;15807053;28;20089;-62
2020/12/22 19:59:54;;;;;;;1999.90;999.90;;;;;;;12.18;71.23;100971.66;15784331;28;20040;-63
2020/12/22 20:07:27;;;;;;;1999.90;999.90;;;;;;;12.27;70.81;100980.84;15790608;28;20055;-61
2020/12/22 20:15:00;;;;;;;1999.90;999.90;;;;;;;12.20;71.08;100988.97;15792780;28;20032;-58
2020/12/22 20:22:34;;;;;;;1999.90;999.90;;;;;;;12.30;70.59;100995.00;15809365;28;20398;-60
2020/12/22 20:30:07;;;;;;;1999.90;999.90;;;;;;;12.27;70.35;101000.41;15841352;28;20039;-61
2020/12/22 20:37:40;;;;;;;1999.90;999.90;;;;;;;12.07;70.21;101005.63;15789897;28;20050;-61
2020/12/22 20:45:13;;;;;;;1999.90;999.90;;;;;;;12.14;69.77;100988.31;15810152;28;20096;-61
2020/12/22 20:52:47;;;;;;;1999.90;999.90;;;;;;;12.02;69.47;100997.44;15823962;28;20500;-60
2020/12/22 21:00:20;;;;;;;1999.90;999.90;;;;;;;12.03;68.13;101007.47;15780821;28;20051;-60
2020/12/22 21:07:53;;;;;;;1999.90;999.90;;;;;;;11.99;67.98;100992.50;15815852;28;20442;-60
2020/12/22 21:15:26;;;;;;;1999.90;999.90;;;;;;;12.11;67.89;100994.59;15807097;28;20833;-60
2020/12/22 21:22:59;;;;;;;1999.90;999.90;;;;;;;12.10;68.78;101027.34;15789968;23;20068;-56
2020/12/22 21:30:33;;;;;;;1999.90;999.90;;;;;;;12.00;68.99;101064.06;15774272;28;20490;-56
2020/12/22 21:38:06;;;;;;;1999.90;999.90;;;;;;;11.79;69.14;101058.38;15794478;28;20047;-56
2020/12/22 21:45:39;;;;;;;1999.90;999.90;;;;;;;11.86;68.41;101085.81;15786730;28;20037;-56
2020/12/22 21:53:12;;;;;;;1999.90;999.90;;;;;;;11.88;68.37;101091.91;15689649;28;20177;-54
2020/12/22 22:00:45;;;;;;;1999.90;999.90;;;;;;;11.88;68.78;101071.50;15714721;28;20406;-56
2020/12/22 22:08:19;;;;;;;1999.90;999.90;;;;;;;11.95;68.33;101066.22;15710318;28;20545;-57
2020/12/22 22:15:51;;;;;;;1999.90;999.90;;;;;;;12.00;68.14;101083.66;15699234;28;20059;-56
2020/12/22 22:23:25;;;;;;;1999.90;999.90;;;;;;;11.78;68.89;101092.22;15694225;28;20033;-52
2020/12/22 22:30:57;;;;;;;1999.90;999.90;;;;;;;11.26;70.28;101095.91;15697061;28;20062;-53
2020/12/22 22:38:31;;;;;;;1999.90;999.90;;;;;;;11.29;70.24;101080.44;15693663;28;20052;-53
2020/12/22 22:46:10;;;;;;;1999.90;999.90;;;;;;;11.20;70.41;101058.09;15707885;28;20085;-55
2020/12/22 22:53:45;;;;;;;1999.90;999.90;;;;;;;11.31;69.77;101075.34;15686760;28;20086;-54
2020/12/22 23:01:19;;;;;;;1999.90;999.90;;;;;;;11.27;70.25;101057.59;15726551;28;20592;-54
2020/12/22 23:08:52;;;;;;;;;;;;;;;11.22;70.33;101061.38;15718186;28;20149;-52
2020/12/22 23:16:25;;;;;;;1999.90;999.90;;;;;;;11.39;69.55;101074.53;15686511;28;19921;-55
2020/12/22 23:23:58;;;;;;;1999.90;999.90;;;;;;;11.25;70.35;101085.03;15692017;28;20072;-55
2020/12/22 23:31:31;;;;;;;1999.90;999.90;;;;;;;10.90;69.71;101071.06;15714480;28;20141;-56
2020/12/22 23:39:04;;;;;;;1999.90;999.90;;;;;;;10.88;69.90;101059.41;15715851;28;20044;-54
2020/12/22 23:46:37;;;;;;;1999.90;999.90;;;;;;;10.87;69.75;101068.09;15686773;28;20450;-56
2020/12/22 23:54:10;;;;;;;1999.90;999.90;;;;;;;10.84;70.25;101080.75;15725993;28;20075;-54
